sensor_id;sensor_type;location;lat;lon;timestamp;temperature;humidity
4548;DHT22;2286;51.570;7.090;2023-04-03T00:02:05;1.20;1.00
4548;DHT22;2286;51.570;7.090;2023-04-03T00:04:32;1.20;1.00
4548;DHT22;2286;51.570;7.090;2023-04-03T00:06:59;1.20;13.10
4548;DHT22;2286;51.570;7.090;2023-04-03T00:09:26;1.30;32.90
4548;DHT22;2286;51.570;7.090;2023-04-03T00:11:55;1.30;1.00
4548;DHT22;2286;51.570;7.090;2023-04-03T00:14:23;1.30;9.50
4548;DHT22;2286;51.570;7.090;2023-04-03T00:16:50;1.30;99.90
4548;DHT22;2286;51.570;7.090;2023-04-03T00:19:17;1.20;50.00
4548;DHT22;2286;51.570;7.090;2023-04-03T00:21:45;1.20;99.90
4548;DHT22;2286;51.570;7.090;2023-04-03T00:24:12;1.20;99.90
4548;DHT22;2286;51.570;7.090;2023-04-03T00:26:40;1.20;99.90
4548;DHT22;2286;51.570;7.090;2023-04-03T00:29:09;1.10;99.90
4548;DHT22;2286;51.570;7.090;2023-04-03T00:31:36;1.10;99.90
4548;DHT22;2286;51.570;7.090;2023-04-03T00:34:03;1.20;99.90
4548;DHT22;2286;51.570;7.090;2023-04-03T00:36:30;1.20;99.90
4548;DHT22;2286;51.570;7.090;2023-04-03T00:38:58;1.20;99.90
4548;DHT22;2286;51.570;7.090;2023-04-03T00:41:25;1.20;73.90
4548;DHT22;2286;51.570;7.090;2023-04-03T00:43:52;1.20;10.60
4548;DHT22;2286;51.570;7.090;2023-04-03T00:46:21;1.10;1.00
4548;DHT22;2286;51.570;7.090;2023-04-03T00:48:49;1.20;15.70
4548;DHT22;2286;51.570;7.090;2023-04-03T00:51:21;1.10;1.00
4548;DHT22;2286;51.570;7.090;2023-04-03T00:53:53;1.10;1.00
4548;DHT22;2286;51.570;7.090;2023-04-03T00:56:25;1.20;1.00
4548;DHT22;2286;51.570;7.090;2023-04-03T00:58:56;1.20;1.00
4548;DHT22;2286;51.570;7.090;2023-04-03T01:01:27;1.20;1.00
4548;DHT22;2286;51.570;7.090;2023-04-03T01:03:55;1.20;1.00
4548;DHT22;2286;51.570;7.090;2023-04-03T01:06:26;1.10;1.00
4548;DHT22;2286;51.570;7.090;2023-04-03T01:08:53;1.10;1.00
4548;DHT22;2286;51.570;7.090;2023-04-03T01:11:21;1.20;1.00
4548;DHT22;2286;51.570;7.090;2023-04-03T01:13:49;1.20;1.00
4548;DHT22;2286;51.570;7.090;2023-04-03T01:16:16;1.20;1.00
4548;DHT22;2286;51.570;7.090;2023-04-03T01:18:45;1.20;99.90
4548;DHT22;2286;51.570;7.090;2023-04-03T01:24:34;1.40;99.90
4548;DHT22;2286;51.570;7.090;2023-04-03T01:27:03;1.40;99.90
4548;DHT22;2286;51.570;7.090;2023-04-03T01:29:30;1.40;99.90
4548;DHT22;2286;51.570;7.090;2023-04-03T01:32:00;1.40;99.90
4548;DHT22;2286;51.570;7.090;2023-04-03T01:34:28;1.40;99.90
4548;DHT22;2286;51.570;7.090;2023-04-03T01:36:55;1.40;99.90
4548;DHT22;2286;51.570;7.090;2023-04-03T01:39:22;1.50;99.70
4548;DHT22;2286;51.570;7.090;2023-04-03T01:41:50;1.50;88.60
4548;DHT22;2286;51.570;7.090;2023-04-03T01:44:17;1.40;45.40
4548;DHT22;2286;51.570;7.090;2023-04-03T01:46:44;1.40;49.50
4548;DHT22;2286;51.570;7.090;2023-04-03T01:49:12;1.50;54.00
4548;DHT22;2286;51.570;7.090;2023-04-03T01:51:39;1.50;16.80
4548;DHT22;2286;51.570;7.090;2023-04-03T01:54:06;1.30;1.00
4548;DHT22;2286;51.570;7.090;2023-04-03T01:56:33;1.30;34.50
4548;DHT22;2286;51.570;7.090;2023-04-03T01:59:00;1.30;45.90
4548;DHT22;2286;51.570;7.090;2023-04-03T02:01:27;1.30;19.10
4548;DHT22;2286;51.570;7.090;2023-04-03T02:03:54;1.30;16.50
4548;DHT22;2286;51.570;7.090;2023-04-03T02:06:22;1.40;38.70
4548;DHT22;2286;51.570;7.090;2023-04-03T02:08:49;1.40;21.40
4548;DHT22;2286;51.570;7.090;2023-04-03T02:11:16;1.30;1.00
4548;DHT22;2286;51.570;7.090;2023-04-03T02:13:43;1.20;1.00
4548;DHT22;2286;51.570;7.090;2023-04-03T02:16:10;1.20;1.00
4548;DHT22;2286;51.570;7.090;2023-04-03T02:18:39;1.10;1.00
4548;DHT22;2286;51.570;7.090;2023-04-03T02:21:06;1.10;20.70
4548;DHT22;2286;51.570;7.090;2023-04-03T02:23:34;1.10;81.90
4548;DHT22;2286;51.570;7.090;2023-04-03T02:26:04;1.10;50.80
4548;DHT22;2286;51.570;7.090;2023-04-03T02:28:32;1.10;50.90
4548;DHT22;2286;51.570;7.090;2023-04-03T02:30:59;1.00;36.30
4548;DHT22;2286;51.570;7.090;2023-04-03T02:33:26;1.00;56.40
4548;DHT22;2286;51.570;7.090;2023-04-03T02:35:53;1.10;77.10
4548;DHT22;2286;51.570;7.090;2023-04-03T02:38:21;1.10;88.10
4548;DHT22;2286;51.570;7.090;2023-04-03T02:40:50;1.00;84.40
4548;DHT22;2286;51.570;7.090;2023-04-03T02:43:17;1.00;79.90
4548;DHT22;2286;51.570;7.090;2023-04-03T02:45:44;1.00;62.00
4548;DHT22;2286;51.570;7.090;2023-04-03T02:48:12;0.90;34.00
4548;DHT22;2286;51.570;7.090;2023-04-03T02:50:40;0.90;55.70
4548;DHT22;2286;51.570;7.090;2023-04-03T02:53:08;0.80;21.60
4548;DHT22;2286;51.570;7.090;2023-04-03T02:55:34;0.80;38.60
4548;DHT22;2286;51.570;7.090;2023-04-03T02:58:03;0.80;44.30
4548;DHT22;2286;51.570;7.090;2023-04-03T03:00:30;0.90;73.60
4548;DHT22;2286;51.570;7.090;2023-04-03T03:02:56;0.80;31.20
4548;DHT22;2286;51.570;7.090;2023-04-03T03:05:23;0.80;27.10
4548;DHT22;2286;51.570;7.090;2023-04-03T03:07:50;0.70;36.30
4548;DHT22;2286;51.570;7.090;2023-04-03T03:10:17;0.70;99.90
4548;DHT22;2286;51.570;7.090;2023-04-03T03:12:44;0.70;93.70
4548;DHT22;2286;51.570;7.090;2023-04-03T03:15:12;0.70;99.90
4548;DHT22;2286;51.570;7.090;2023-04-03T03:17:39;0.70;51.60
4548;DHT22;2286;51.570;7.090;2023-04-03T03:20:07;0.80;95.80
4548;DHT22;2286;51.570;7.090;2023-04-03T03:22:34;0.70;33.20
4548;DHT22;2286;51.570;7.090;2023-04-03T03:25:01;0.80;65.60
4548;DHT22;2286;51.570;7.090;2023-04-03T03:27:28;0.70;19.30
4548;DHT22;2286;51.570;7.090;2023-04-03T03:29:55;0.70;35.30
4548;DHT22;2286;51.570;7.090;2023-04-03T03:32:23;0.70;19.20
4548;DHT22;2286;51.570;7.090;2023-04-03T03:34:50;0.60;37.70
4548;DHT22;2286;51.570;7.090;2023-04-03T03:37:17;0.60;70.50
4548;DHT22;2286;51.570;7.090;2023-04-03T03:39:44;0.60;61.50
4548;DHT22;2286;51.570;7.090;2023-04-03T03:42:11;0.50;64.00
4548;DHT22;2286;51.570;7.090;2023-04-03T03:44:37;0.50;77.60
4548;DHT22;2286;51.570;7.090;2023-04-03T03:47:04;0.40;95.90
4548;DHT22;2286;51.570;7.090;2023-04-03T03:49:33;0.40;99.90
4548;DHT22;2286;51.570;7.090;2023-04-03T03:52:00;0.40;99.90
4548;DHT22;2286;51.570;7.090;2023-04-03T03:54:27;0.40;99.90
4548;DHT22;2286;51.570;7.090;2023-04-03T03:56:54;0.30;99.90
4548;DHT22;2286;51.570;7.090;2023-04-03T03:59:21;0.30;99.90
4548;DHT22;2286;51.570;7.090;2023-04-03T04:01:47;0.30;99.90
4548;DHT22;2286;51.570;7.090;2023-04-03T04:04:14;0.40;99.90
4548;DHT22;2286;51.570;7.090;2023-04-03T04:06:42;0.30;99.90
4548;DHT22;2286;51.570;7.090;2023-04-03T04:09:09;0.30;99.90
4548;DHT22;2286;51.570;7.090;2023-04-03T04:11:36;0.20;99.90
4548;DHT22;2286;51.570;7.090;2023-04-03T04:14:05;0.10;99.90
4548;DHT22;2286;51.570;7.090;2023-04-03T04:16:32;0.10;99.90
4548;DHT22;2286;51.570;7.090;2023-04-03T04:18:58;0.10;99.90
4548;DHT22;2286;51.570;7.090;2023-04-03T04:21:25;0.00;99.90
4548;DHT22;2286;51.570;7.090;2023-04-03T04:23:53;0.10;99.90
4548;DHT22;2286;51.570;7.090;2023-04-03T04:26:21;0.00;99.90
4548;DHT22;2286;51.570;7.090;2023-04-03T04:28:47;0.00;99.90
4548;DHT22;2286;51.570;7.090;2023-04-03T04:31:14;-0.10;99.90
4548;DHT22;2286;51.570;7.090;2023-04-03T04:33:41;-0.10;99.90
4548;DHT22;2286;51.570;7.090;2023-04-03T04:36:08;-0.10;99.90
4548;DHT22;2286;51.570;7.090;2023-04-03T04:38:35;-0.10;99.90
4548;DHT22;2286;51.570;7.090;2023-04-03T04:41:03;-0.10;99.90
4548;DHT22;2286;51.570;7.090;2023-04-03T04:43:30;-0.20;99.90
4548;DHT22;2286;51.570;7.090;2023-04-03T04:46:04;-0.30;99.90
4548;DHT22;2286;51.570;7.090;2023-04-03T04:48:31;-0.20;99.90
4548;DHT22;2286;51.570;7.090;2023-04-03T04:50:58;-0.20;1.00
4548;DHT22;2286;51.570;7.090;2023-04-03T04:53:25;-0.30;99.90
4548;DHT22;2286;51.570;7.090;2023-04-03T04:55:52;-0.20;1.00
4548;DHT22;2286;51.570;7.090;2023-04-03T04:58:20;-0.30;99.90
4548;DHT22;2286;51.570;7.090;2023-04-03T05:00:47;-0.30;1.00
4548;DHT22;2286;51.570;7.090;2023-04-03T05:03:14;-0.30;1.00
4548;DHT22;2286;51.570;7.090;2023-04-03T05:05:41;-0.40;1.00
4548;DHT22;2286;51.570;7.090;2023-04-03T05:08:08;-0.40;1.00
4548;DHT22;2286;51.570;7.090;2023-04-03T05:10:35;-0.40;1.00
4548;DHT22;2286;51.570;7.090;2023-04-03T05:13:01;-0.30;1.00
4548;DHT22;2286;51.570;7.090;2023-04-03T05:15:29;-0.40;1.00
4548;DHT22;2286;51.570;7.090;2023-04-03T05:17:56;-0.40;1.00
4548;DHT22;2286;51.570;7.090;2023-04-03T05:20:23;-0.40;1.00
4548;DHT22;2286;51.570;7.090;2023-04-03T05:22:50;-0.40;1.00
4548;DHT22;2286;51.570;7.090;2023-04-03T05:25:17;-0.40;1.00
4548;DHT22;2286;51.570;7.090;2023-04-03T05:27:43;-0.40;1.00
4548;DHT22;2286;51.570;7.090;2023-04-03T05:30:11;-0.40;1.00
4548;DHT22;2286;51.570;7.090;2023-04-03T05:32:39;-0.40;1.00
4548;DHT22;2286;51.570;7.090;2023-04-03T05:35:07;-0.40;1.00
4548;DHT22;2286;51.570;7.090;2023-04-03T05:37:33;-0.40;1.00
4548;DHT22;2286;51.570;7.090;2023-04-03T05:40:00;-0.40;1.00
4548;DHT22;2286;51.570;7.090;2023-04-03T05:42:27;-0.30;1.00
4548;DHT22;2286;51.570;7.090;2023-04-03T05:44:55;-0.30;1.00
4548;DHT22;2286;51.570;7.090;2023-04-03T05:47:21;-0.20;1.00
4548;DHT22;2286;51.570;7.090;2023-04-03T05:49:50;-0.10;1.00
4548;DHT22;2286;51.570;7.090;2023-04-03T05:52:21;-0.10;99.90
4548;DHT22;2286;51.570;7.090;2023-04-03T05:54:49;0.00;99.90
4548;DHT22;2286;51.570;7.090;2023-04-03T05:57:16;0.00;99.90
4548;DHT22;2286;51.570;7.090;2023-04-03T05:59:43;0.10;99.90
4548;DHT22;2286;51.570;7.090;2023-04-03T06:02:11;0.10;99.90
4548;DHT22;2286;51.570;7.090;2023-04-03T06:04:38;0.10;99.90
4548;DHT22;2286;51.570;7.090;2023-04-03T06:07:07;0.20;99.90
4548;DHT22;2286;51.570;7.090;2023-04-03T06:09:36;0.30;99.90
4548;DHT22;2286;51.570;7.090;2023-04-03T06:12:03;0.30;99.90
4548;DHT22;2286;51.570;7.090;2023-04-03T06:14:30;0.40;99.90
4548;DHT22;2286;51.570;7.090;2023-04-03T06:16:57;0.50;77.00
4548;DHT22;2286;51.570;7.090;2023-04-03T06:19:24;0.50;47.10
4548;DHT22;2286;51.570;7.090;2023-04-03T06:21:51;0.60;21.60
4548;DHT22;2286;51.570;7.090;2023-04-03T06:24:20;0.70;1.00
4548;DHT22;2286;51.570;7.090;2023-04-03T06:26:50;0.80;1.00
4548;DHT22;2286;51.570;7.090;2023-04-03T06:29:18;0.90;1.00
4548;DHT22;2286;51.570;7.090;2023-04-03T06:31:45;0.90;1.00
4548;DHT22;2286;51.570;7.090;2023-04-03T06:34:13;1.00;1.00
4548;DHT22;2286;51.570;7.090;2023-04-03T06:36:41;1.00;1.00
4548;DHT22;2286;51.570;7.090;2023-04-03T06:39:09;1.10;1.00
4548;DHT22;2286;51.570;7.090;2023-04-03T06:41:40;1.20;1.00
4548;DHT22;2286;51.570;7.090;2023-04-03T06:44:07;1.20;1.00
4548;DHT22;2286;51.570;7.090;2023-04-03T06:46:37;1.30;1.00
4548;DHT22;2286;51.570;7.090;2023-04-03T06:49:04;1.30;1.00
4548;DHT22;2286;51.570;7.090;2023-04-03T06:51:33;1.40;1.00
4548;DHT22;2286;51.570;7.090;2023-04-03T06:54:01;1.40;1.00
4548;DHT22;2286;51.570;7.090;2023-04-03T06:56:29;1.50;1.00
4548;DHT22;2286;51.570;7.090;2023-04-03T06:58:57;1.50;1.00
4548;DHT22;2286;51.570;7.090;2023-04-03T07:01:25;1.60;1.00
4548;DHT22;2286;51.570;7.090;2023-04-03T07:03:53;1.60;1.00
4548;DHT22;2286;51.570;7.090;2023-04-03T07:06:20;1.70;1.00
4548;DHT22;2286;51.570;7.090;2023-04-03T07:08:47;1.70;1.00
4548;DHT22;2286;51.570;7.090;2023-04-03T07:11:14;1.80;99.90
4548;DHT22;2286;51.570;7.090;2023-04-03T07:13:41;1.90;99.90
4548;DHT22;2286;51.570;7.090;2023-04-03T07:16:10;2.00;99.90
4548;DHT22;2286;51.570;7.090;2023-04-03T07:18:37;2.00;99.90
4548;DHT22;2286;51.570;7.090;2023-04-03T07:21:04;2.00;99.90
4548;DHT22;2286;51.570;7.090;2023-04-03T07:23:31;2.10;99.90
4548;DHT22;2286;51.570;7.090;2023-04-03T07:25:58;2.20;99.90
4548;DHT22;2286;51.570;7.090;2023-04-03T07:28:25;2.30;99.90
4548;DHT22;2286;51.570;7.090;2023-04-03T07:30:53;2.30;99.90
4548;DHT22;2286;51.570;7.090;2023-04-03T07:33:23;2.40;99.90
4548;DHT22;2286;51.570;7.090;2023-04-03T07:35:50;2.50;99.90
4548;DHT22;2286;51.570;7.090;2023-04-03T07:38:17;2.50;99.90
4548;DHT22;2286;51.570;7.090;2023-04-03T07:40:46;2.50;99.90
4548;DHT22;2286;51.570;7.090;2023-04-03T07:43:13;2.60;99.90
4548;DHT22;2286;51.570;7.090;2023-04-03T07:45:40;2.60;99.90
4548;DHT22;2286;51.570;7.090;2023-04-03T07:48:06;2.70;99.90
4548;DHT22;2286;51.570;7.090;2023-04-03T07:50:35;2.80;99.90
4548;DHT22;2286;51.570;7.090;2023-04-03T07:53:02;2.80;99.90
4548;DHT22;2286;51.570;7.090;2023-04-03T07:55:29;2.90;99.90
4548;DHT22;2286;51.570;7.090;2023-04-03T07:57:56;3.00;99.90
4548;DHT22;2286;51.570;7.090;2023-04-03T08:00:23;3.10;99.90
4548;DHT22;2286;51.570;7.090;2023-04-03T08:02:50;3.20;99.90
4548;DHT22;2286;51.570;7.090;2023-04-03T08:05:17;3.30;99.90
4548;DHT22;2286;51.570;7.090;2023-04-03T08:07:46;3.40;99.90
4548;DHT22;2286;51.570;7.090;2023-04-03T08:10:14;3.50;99.90
4548;DHT22;2286;51.570;7.090;2023-04-03T08:12:41;3.60;99.90
4548;DHT22;2286;51.570;7.090;2023-04-03T08:15:09;3.70;99.90
4548;DHT22;2286;51.570;7.090;2023-04-03T08:17:36;3.80;99.90
4548;DHT22;2286;51.570;7.090;2023-04-03T08:20:04;3.80;99.90
4548;DHT22;2286;51.570;7.090;2023-04-03T08:22:32;3.80;99.90
4548;DHT22;2286;51.570;7.090;2023-04-03T08:25:00;3.80;99.90
4548;DHT22;2286;51.570;7.090;2023-04-03T08:27:27;3.90;99.90
4548;DHT22;2286;51.570;7.090;2023-04-03T08:29:54;4.00;99.90
4548;DHT22;2286;51.570;7.090;2023-04-03T08:32:21;4.10;99.90
4548;DHT22;2286;51.570;7.090;2023-04-03T08:34:48;4.20;99.90
4548;DHT22;2286;51.570;7.090;2023-04-03T08:37:14;4.30;99.90
4548;DHT22;2286;51.570;7.090;2023-04-03T08:39:43;4.50;99.90
4548;DHT22;2286;51.570;7.090;2023-04-03T08:42:16;4.60;99.90
4548;DHT22;2286;51.570;7.090;2023-04-03T08:44:50;4.70;99.90
4548;DHT22;2286;51.570;7.090;2023-04-03T08:47:24;4.70;99.90
4548;DHT22;2286;51.570;7.090;2023-04-03T08:49:56;4.90;99.90
4548;DHT22;2286;51.570;7.090;2023-04-03T08:52:31;4.90;99.90
4548;DHT22;2286;51.570;7.090;2023-04-03T08:55:01;5.10;99.90
4548;DHT22;2286;51.570;7.090;2023-04-03T08:57:33;5.30;99.90
4548;DHT22;2286;51.570;7.090;2023-04-03T09:00:17;5.30;99.90
4548;DHT22;2286;51.570;7.090;2023-04-03T09:02:46;5.40;99.90
4548;DHT22;2286;51.570;7.090;2023-04-03T09:05:15;5.60;99.90
4548;DHT22;2286;51.570;7.090;2023-04-03T09:07:44;5.70;99.90
4548;DHT22;2286;51.570;7.090;2023-04-03T09:10:14;5.80;99.90
4548;DHT22;2286;51.570;7.090;2023-04-03T09:12:46;6.00;99.90
4548;DHT22;2286;51.570;7.090;2023-04-03T09:15:18;6.00;99.90
4548;DHT22;2286;51.570;7.090;2023-04-03T09:17:55;6.20;99.90
4548;DHT22;2286;51.570;7.090;2023-04-03T09:20:29;6.50;99.90
4548;DHT22;2286;51.570;7.090;2023-04-03T09:22:58;6.60;99.90
4548;DHT22;2286;51.570;7.090;2023-04-03T09:25:27;6.70;99.90
4548;DHT22;2286;51.570;7.090;2023-04-03T09:27:57;6.80;99.90
4548;DHT22;2286;51.570;7.090;2023-04-03T09:30:25;6.90;99.90
4548;DHT22;2286;51.570;7.090;2023-04-03T09:32:54;7.00;99.90
4548;DHT22;2286;51.570;7.090;2023-04-03T09:35:24;7.10;99.90
4548;DHT22;2286;51.570;7.090;2023-04-03T09:37:52;7.30;99.90
4548;DHT22;2286;51.570;7.090;2023-04-03T09:40:32;7.50;99.90
4548;DHT22;2286;51.570;7.090;2023-04-03T09:43:24;7.70;99.90
4548;DHT22;2286;51.570;7.090;2023-04-03T09:45:51;8.00;99.90
4548;DHT22;2286;51.570;7.090;2023-04-03T09:48:20;8.10;99.90
4548;DHT22;2286;51.570;7.090;2023-04-03T09:50:59;8.30;99.90
4548;DHT22;2286;51.570;7.090;2023-04-03T09:53:30;8.40;99.90
4548;DHT22;2286;51.570;7.090;2023-04-03T09:55:58;8.70;99.90
4548;DHT22;2286;51.570;7.090;2023-04-03T09:58:29;9.20;99.90
4548;DHT22;2286;51.570;7.090;2023-04-03T10:00:58;9.40;99.90
4548;DHT22;2286;51.570;7.090;2023-04-03T10:03:29;9.50;99.90
4548;DHT22;2286;51.570;7.090;2023-04-03T10:05:56;9.60;99.90
4548;DHT22;2286;51.570;7.090;2023-04-03T10:08:27;9.80;99.90
4548;DHT22;2286;51.570;7.090;2023-04-03T10:11:14;10.10;99.90
4548;DHT22;2286;51.570;7.090;2023-04-03T10:13:58;11.50;99.90
4548;DHT22;2286;51.570;7.090;2023-04-03T10:16:29;12.50;99.90
4548;DHT22;2286;51.570;7.090;2023-04-03T10:19:10;13.10;99.90
4548;DHT22;2286;51.570;7.090;2023-04-03T10:21:44;13.60;99.90
4548;DHT22;2286;51.570;7.090;2023-04-03T10:24:14;13.80;99.90
4548;DHT22;2286;51.570;7.090;2023-04-03T10:26:52;14.00;99.90
4548;DHT22;2286;51.570;7.090;2023-04-03T10:29:36;14.00;99.90
4548;DHT22;2286;51.570;7.090;2023-04-03T10:32:17;14.10;99.90
4548;DHT22;2286;51.570;7.090;2023-04-03T10:34:48;14.00;99.90
4548;DHT22;2286;51.570;7.090;2023-04-03T10:37:23;14.70;99.90
4548;DHT22;2286;51.570;7.090;2023-04-03T10:39:56;15.40;99.90
4548;DHT22;2286;51.570;7.090;2023-04-03T10:42:31;16.00;99.90
4548;DHT22;2286;51.570;7.090;2023-04-03T10:45:14;16.40;99.90
4548;DHT22;2286;51.570;7.090;2023-04-03T10:47:46;16.40;99.90
4548;DHT22;2286;51.570;7.090;2023-04-03T10:50:39;16.10;99.90
4548;DHT22;2286;51.570;7.090;2023-04-03T10:53:14;16.00;99.90
4548;DHT22;2286;51.570;7.090;2023-04-03T10:55:51;16.60;99.90
4548;DHT22;2286;51.570;7.090;2023-04-03T10:58:26;16.20;99.90
4548;DHT22;2286;51.570;7.090;2023-04-03T11:01:01;16.40;99.90
4548;DHT22;2286;51.570;7.090;2023-04-03T11:03:32;16.70;99.90
4548;DHT22;2286;51.570;7.090;2023-04-03T11:06:02;17.20;99.90
4548;DHT22;2286;51.570;7.090;2023-04-03T11:08:34;17.50;99.90
4548;DHT22;2286;51.570;7.090;2023-04-03T11:11:05;16.80;99.90
4548;DHT22;2286;51.570;7.090;2023-04-03T11:13:34;17.00;99.90
4548;DHT22;2286;51.570;7.090;2023-04-03T11:16:05;17.10;99.90
4548;DHT22;2286;51.570;7.090;2023-04-03T11:18:35;17.80;99.90
4548;DHT22;2286;51.570;7.090;2023-04-03T11:21:07;18.90;99.90
4548;DHT22;2286;51.570;7.090;2023-04-03T11:23:36;19.40;99.90
4548;DHT22;2286;51.570;7.090;2023-04-03T11:26:10;20.00;99.90
4548;DHT22;2286;51.570;7.090;2023-04-03T11:28:37;20.20;99.90
4548;DHT22;2286;51.570;7.090;2023-04-03T11:31:15;19.60;99.90
4548;DHT22;2286;51.570;7.090;2023-04-03T11:33:52;19.10;99.90
4548;DHT22;2286;51.570;7.090;2023-04-03T11:36:24;19.20;99.90
4548;DHT22;2286;51.570;7.090;2023-04-03T11:38:53;19.20;99.90
4548;DHT22;2286;51.570;7.090;2023-04-03T11:41:26;19.30;99.90
4548;DHT22;2286;51.570;7.090;2023-04-03T11:43:58;19.90;99.90
4548;DHT22;2286;51.570;7.090;2023-04-03T11:46:50;20.60;99.90
4548;DHT22;2286;51.570;7.090;2023-04-03T11:52:02;20.40;99.90
4548;DHT22;2286;51.570;7.090;2023-04-03T11:54:44;20.90;99.90
4548;DHT22;2286;51.570;7.090;2023-04-03T11:57:43;21.00;99.90
4548;DHT22;2286;51.570;7.090;2023-04-03T12:00:46;20.50;99.90
4548;DHT22;2286;51.570;7.090;2023-04-03T12:15:23;22.50;99.90
4548;DHT22;2286;51.570;7.090;2023-04-03T12:17:50;22.80;99.90
4548;DHT22;2286;51.570;7.090;2023-04-03T12:20:46;22.90;99.90
4548;DHT22;2286;51.570;7.090;2023-04-03T12:23:26;22.90;99.90
4548;DHT22;2286;51.570;7.090;2023-04-03T12:26:00;22.80;99.90
4548;DHT22;2286;51.570;7.090;2023-04-03T12:28:28;22.40;99.90
4548;DHT22;2286;51.570;7.090;2023-04-03T12:30:56;22.00;99.90
4548;DHT22;2286;51.570;7.090;2023-04-03T12:33:29;22.30;99.90
4548;DHT22;2286;51.570;7.090;2023-04-03T12:36:07;22.60;99.90
4548;DHT22;2286;51.570;7.090;2023-04-03T12:41:32;21.90;99.90
4548;DHT22;2286;51.570;7.090;2023-04-03T12:44:20;23.50;99.90
4548;DHT22;2286;51.570;7.090;2023-04-03T12:46:51;24.00;99.90
4548;DHT22;2286;51.570;7.090;2023-04-03T12:49:30;23.80;99.90
4548;DHT22;2286;51.570;7.090;2023-04-03T12:52:00;23.20;99.90
4548;DHT22;2286;51.570;7.090;2023-04-03T12:54:30;23.00;99.90
4548;DHT22;2286;51.570;7.090;2023-04-03T12:57:20;23.50;99.90
4548;DHT22;2286;51.570;7.090;2023-04-03T12:59:47;23.70;99.90
4548;DHT22;2286;51.570;7.090;2023-04-03T13:02:24;24.10;99.90
4548;DHT22;2286;51.570;7.090;2023-04-03T13:04:53;23.70;99.90
4548;DHT22;2286;51.570;7.090;2023-04-03T13:07:22;23.50;99.90
4548;DHT22;2286;51.570;7.090;2023-04-03T13:10:02;23.50;99.90
4548;DHT22;2286;51.570;7.090;2023-04-03T13:12:31;24.20;99.90
4548;DHT22;2286;51.570;7.090;2023-04-03T13:15:00;24.00;99.90
4548;DHT22;2286;51.570;7.090;2023-04-03T13:17:30;23.90;99.90
4548;DHT22;2286;51.570;7.090;2023-04-03T13:20:10;23.70;99.90
4548;DHT22;2286;51.570;7.090;2023-04-03T13:22:39;24.10;99.90
4548;DHT22;2286;51.570;7.090;2023-04-03T13:25:11;24.20;99.90
4548;DHT22;2286;51.570;7.090;2023-04-03T13:27:41;24.40;99.90
4548;DHT22;2286;51.570;7.090;2023-04-03T13:30:21;24.50;99.90
4548;DHT22;2286;51.570;7.090;2023-04-03T13:32:50;24.60;99.90
4548;DHT22;2286;51.570;7.090;2023-04-03T13:35:29;24.30;99.90
4548;DHT22;2286;51.570;7.090;2023-04-03T13:37:58;24.10;99.90
4548;DHT22;2286;51.570;7.090;2023-04-03T13:40:25;24.00;99.90
4548;DHT22;2286;51.570;7.090;2023-04-03T13:43:02;24.50;99.90
4548;DHT22;2286;51.570;7.090;2023-04-03T13:45:31;25.20;99.90
4548;DHT22;2286;51.570;7.090;2023-04-03T13:48:09;25.70;99.90
4548;DHT22;2286;51.570;7.090;2023-04-03T13:50:53;25.80;99.90
4548;DHT22;2286;51.570;7.090;2023-04-03T13:53:20;25.40;99.90
4548;DHT22;2286;51.570;7.090;2023-04-03T13:56:07;25.50;99.90
4548;DHT22;2286;51.570;7.090;2023-04-03T13:58:36;25.50;99.90
4548;DHT22;2286;51.570;7.090;2023-04-03T14:01:11;25.00;99.90
4548;DHT22;2286;51.570;7.090;2023-04-03T14:03:42;25.80;99.90
4548;DHT22;2286;51.570;7.090;2023-04-03T14:06:11;25.90;99.90
4548;DHT22;2286;51.570;7.090;2023-04-03T14:08:39;25.50;99.90
4548;DHT22;2286;51.570;7.090;2023-04-03T14:11:11;25.00;99.90
4548;DHT22;2286;51.570;7.090;2023-04-03T14:13:40;25.30;99.90
4548;DHT22;2286;51.570;7.090;2023-04-03T14:16:07;25.90;99.90
4548;DHT22;2286;51.570;7.090;2023-04-03T14:18:34;26.50;99.90
4548;DHT22;2286;51.570;7.090;2023-04-03T14:21:02;26.50;99.90
4548;DHT22;2286;51.570;7.090;2023-04-03T14:23:29;26.60;99.90
4548;DHT22;2286;51.570;7.090;2023-04-03T14:25:56;26.80;99.90
4548;DHT22;2286;51.570;7.090;2023-04-03T14:28:23;26.90;99.90
4548;DHT22;2286;51.570;7.090;2023-04-03T14:30:51;27.00;99.90
4548;DHT22;2286;51.570;7.090;2023-04-03T14:33:20;26.10;99.90
4548;DHT22;2286;51.570;7.090;2023-04-03T14:35:48;26.00;99.90
4548;DHT22;2286;51.570;7.090;2023-04-03T14:38:23;25.90;99.90
4548;DHT22;2286;51.570;7.090;2023-04-03T14:40:51;25.30;99.90
4548;DHT22;2286;51.570;7.090;2023-04-03T14:43:18;25.70;99.90
4548;DHT22;2286;51.570;7.090;2023-04-03T14:45:46;25.60;99.90
4548;DHT22;2286;51.570;7.090;2023-04-03T14:48:18;25.80;99.90
4548;DHT22;2286;51.570;7.090;2023-04-03T14:50:46;25.90;99.90
4548;DHT22;2286;51.570;7.090;2023-04-03T14:53:14;25.80;99.90
4548;DHT22;2286;51.570;7.090;2023-04-03T14:55:43;26.10;99.90
4548;DHT22;2286;51.570;7.090;2023-04-03T14:58:13;25.90;99.90
4548;DHT22;2286;51.570;7.090;2023-04-03T15:00:41;25.70;99.90
4548;DHT22;2286;51.570;7.090;2023-04-03T15:03:15;25.00;99.90
4548;DHT22;2286;51.570;7.090;2023-04-03T15:05:44;25.00;99.90
4548;DHT22;2286;51.570;7.090;2023-04-03T15:08:19;24.30;99.90
4548;DHT22;2286;51.570;7.090;2023-04-03T15:10:46;24.30;99.90
4548;DHT22;2286;51.570;7.090;2023-04-03T15:13:13;25.10;99.90
4548;DHT22;2286;51.570;7.090;2023-04-03T15:15:40;25.20;99.90
4548;DHT22;2286;51.570;7.090;2023-04-03T15:18:13;25.40;99.90
4548;DHT22;2286;51.570;7.090;2023-04-03T15:20:41;25.40;99.90
4548;DHT22;2286;51.570;7.090;2023-04-03T15:23:10;25.20;99.90
4548;DHT22;2286;51.570;7.090;2023-04-03T15:25:37;25.20;99.90
4548;DHT22;2286;51.570;7.090;2023-04-03T15:28:05;24.50;99.90
4548;DHT22;2286;51.570;7.090;2023-04-03T15:30:32;24.70;99.90
4548;DHT22;2286;51.570;7.090;2023-04-03T15:33:02;25.00;99.90
4548;DHT22;2286;51.570;7.090;2023-04-03T15:35:29;25.20;99.90
4548;DHT22;2286;51.570;7.090;2023-04-03T15:37:57;25.50;99.90
4548;DHT22;2286;51.570;7.090;2023-04-03T15:40:24;24.80;99.90
4548;DHT22;2286;51.570;7.090;2023-04-03T15:42:51;25.20;99.90
4548;DHT22;2286;51.570;7.090;2023-04-03T15:45:18;25.20;99.90
4548;DHT22;2286;51.570;7.090;2023-04-03T15:47:44;25.20;99.90
4548;DHT22;2286;51.570;7.090;2023-04-03T15:50:12;24.80;99.90
4548;DHT22;2286;51.570;7.090;2023-04-03T15:52:39;24.50;99.90
4548;DHT22;2286;51.570;7.090;2023-04-03T15:55:08;24.70;99.90
4548;DHT22;2286;51.570;7.090;2023-04-03T15:57:35;24.90;99.90
4548;DHT22;2286;51.570;7.090;2023-04-03T16:00:02;24.30;99.90
4548;DHT22;2286;51.570;7.090;2023-04-03T16:02:29;23.70;99.90
4548;DHT22;2286;51.570;7.090;2023-04-03T16:04:56;23.10;99.90
4548;DHT22;2286;51.570;7.090;2023-04-03T16:07:23;22.60;99.90
4548;DHT22;2286;51.570;7.090;2023-04-03T16:09:49;22.70;99.90
4548;DHT22;2286;51.570;7.090;2023-04-03T16:12:18;23.00;99.90
4548;DHT22;2286;51.570;7.090;2023-04-03T16:14:44;23.20;99.90
4548;DHT22;2286;51.570;7.090;2023-04-03T16:17:11;23.00;99.90
4548;DHT22;2286;51.570;7.090;2023-04-03T16:19:38;23.10;99.90
4548;DHT22;2286;51.570;7.090;2023-04-03T16:22:05;22.90;99.90
4548;DHT22;2286;51.570;7.090;2023-04-03T16:24:31;23.20;99.90
4548;DHT22;2286;51.570;7.090;2023-04-03T16:26:58;23.10;99.90
4548;DHT22;2286;51.570;7.090;2023-04-03T16:29:27;23.30;99.90
4548;DHT22;2286;51.570;7.090;2023-04-03T16:31:53;23.50;99.90
4548;DHT22;2286;51.570;7.090;2023-04-03T16:34:20;23.10;99.90
4548;DHT22;2286;51.570;7.090;2023-04-03T16:36:47;23.60;99.90
4548;DHT22;2286;51.570;7.090;2023-04-03T16:39:14;23.60;99.90
4548;DHT22;2286;51.570;7.090;2023-04-03T16:41:41;23.10;99.90
4548;DHT22;2286;51.570;7.090;2023-04-03T16:44:08;22.70;99.90
4548;DHT22;2286;51.570;7.090;2023-04-03T16:46:36;22.60;99.90
4548;DHT22;2286;51.570;7.090;2023-04-03T16:49:03;22.10;99.90